Lower Edmonton, United Kingdom
Current Conditions -  °F | °C
As of 11:20 AM on Sunday 23 Nov 2014 (Local Time) from EGLC Reporting Station
Heavy Rain Heavy Rain  
Wind Chill: 46°   Ceiling: 3500
Heat Index: 48°   Visibility: 6mi
Dew Point: 46°   Wind: 6mph
Humidity: 93%   Direction: 310°NW
Pressure: 30.03"   Gusts: NA
Location:  51.63°N, 0.04°W
Report Text: EGLC 231120Z AUTO 31005KT 240V010 9999 +RA FEW007/// SCT009/// BKN035/// 09/08 Q1017
Loading
Personal Weather Stations






























Interactive Weather Map New forecast layout! Learn more

10-Day Weather Forecast

Advertisements
Track Severe Weather on mobile